sensor_id;sensor_type;location;lat;lon;timestamp;pressure;altitude;pressure_sealevel;temperature;humidity
49841;BME280;35738;49.890;5.930;2022-07-18T00:00:49;96535.66;;;18.44;34.11
49841;BME280;35738;49.890;5.930;2022-07-18T00:03:16;96536.13;;;18.30;34.18
49841;BME280;35738;49.890;5.930;2022-07-18T00:05:43;96529.53;;;18.19;34.38
49841;BME280;35738;49.890;5.930;2022-07-18T00:08:09;96532.75;;;18.21;34.51
49841;BME280;35738;49.890;5.930;2022-07-18T00:10:36;96530.03;;;18.25;34.56
49841;BME280;35738;49.890;5.930;2022-07-18T00:13:03;96532.91;;;18.28;34.43
49841;BME280;35738;49.890;5.930;2022-07-18T00:15:30;96536.94;;;18.31;34.34
49841;BME280;35738;49.890;5.930;2022-07-18T00:17:57;96533.78;;;18.32;34.32
49841;BME280;35738;49.890;5.930;2022-07-18T00:20:23;96535.16;;;18.23;34.35
49841;BME280;35738;49.890;5.930;2022-07-18T00:22:50;96535.72;;;18.13;34.99
49841;BME280;35738;49.890;5.930;2022-07-18T00:25:17;96530.25;;;18.16;34.30
49841;BME280;35738;49.890;5.930;2022-07-18T00:27:43;96533.69;;;18.09;34.63
49841;BME280;35738;49.890;5.930;2022-07-18T00:30:10;96532.59;;;18.14;34.51
49841;BME280;35738;49.890;5.930;2022-07-18T00:32:37;96526.94;;;18.10;34.83
49841;BME280;35738;49.890;5.930;2022-07-18T00:35:04;96522.47;;;18.06;35.06
49841;BME280;35738;49.890;5.930;2022-07-18T00:37:31;96518.25;;;17.96;35.32
49841;BME280;35738;49.890;5.930;2022-07-18T00:39:58;96519.59;;;18.02;34.75
49841;BME280;35738;49.890;5.930;2022-07-18T00:42:24;96523.25;;;18.06;35.07
49841;BME280;35738;49.890;5.930;2022-07-18T00:44:55;96523.34;;;18.10;34.43
49841;BME280;35738;49.890;5.930;2022-07-18T00:47:22;96517.84;;;18.14;34.65
49841;BME280;35738;49.890;5.930;2022-07-18T00:49:49;96517.41;;;18.12;34.80
49841;BME280;35738;49.890;5.930;2022-07-18T00:52:16;96513.75;;;18.07;34.77
49841;BME280;35738;49.890;5.930;2022-07-18T00:54:43;96519.59;;;18.02;35.36
49841;BME280;35738;49.890;5.930;2022-07-18T00:57:10;96518.34;;;18.00;35.02
49841;BME280;35738;49.890;5.930;2022-07-18T00:59:40;96518.16;;;17.93;35.14
49841;BME280;35738;49.890;5.930;2022-07-18T01:02:26;96508.28;;;17.95;34.85
49841;BME280;35738;49.890;5.930;2022-07-18T01:04:53;96512.59;;;17.93;35.34
49841;BME280;35738;49.890;5.930;2022-07-18T01:07:20;96507.31;;;17.88;35.28
49841;BME280;35738;49.890;5.930;2022-07-18T01:09:47;96505.78;;;17.90;35.47
49841;BME280;35738;49.890;5.930;2022-07-18T01:12:14;96515.31;;;17.89;35.47
49841;BME280;35738;49.890;5.930;2022-07-18T01:14:41;96496.91;;;17.85;35.61
49841;BME280;35738;49.890;5.930;2022-07-18T01:17:15;96500.50;;;17.85;35.88
49841;BME280;35738;49.890;5.930;2022-07-18T01:19:43;96508.03;;;17.85;35.80
49841;BME280;35738;49.890;5.930;2022-07-18T01:22:13;96503.53;;;17.80;36.16
49841;BME280;35738;49.890;5.930;2022-07-18T01:24:42;96511.16;;;17.83;35.71
49841;BME280;35738;49.890;5.930;2022-07-18T01:27:20;96510.97;;;17.76;35.61
49841;BME280;35738;49.890;5.930;2022-07-18T01:29:48;96506.50;;;17.87;35.97
49841;BME280;35738;49.890;5.930;2022-07-18T01:32:16;96504.91;;;17.86;35.58
49841;BME280;35738;49.890;5.930;2022-07-18T01:34:46;96502.81;;;17.83;35.79
49841;BME280;35738;49.890;5.930;2022-07-18T01:37:14;96502.91;;;17.87;35.74
49841;BME280;35738;49.890;5.930;2022-07-18T01:39:45;96505.59;;;17.83;35.68
49841;BME280;35738;49.890;5.930;2022-07-18T01:42:12;96507.94;;;17.81;35.95
49841;BME280;35738;49.890;5.930;2022-07-18T01:44:40;96505.59;;;17.83;36.12
49841;BME280;35738;49.890;5.930;2022-07-18T01:47:08;96506.31;;;17.80;35.80
49841;BME280;35738;49.890;5.930;2022-07-18T01:49:37;96504.63;;;17.75;36.12
49841;BME280;35738;49.890;5.930;2022-07-18T01:52:04;96505.69;;;17.71;36.25
49841;BME280;35738;49.890;5.930;2022-07-18T01:54:32;96506.84;;;17.70;35.88
49841;BME280;35738;49.890;5.930;2022-07-18T01:57:02;96495.53;;;17.63;36.54
49841;BME280;35738;49.890;5.930;2022-07-18T01:59:29;96504.88;;;17.55;37.01
49841;BME280;35738;49.890;5.930;2022-07-18T02:01:56;96512.66;;;17.49;37.27
49841;BME280;35738;49.890;5.930;2022-07-18T02:04:23;96508.72;;;17.50;36.71
49841;BME280;35738;49.890;5.930;2022-07-18T02:07:10;96510.69;;;17.50;37.14
49841;BME280;35738;49.890;5.930;2022-07-18T02:09:37;96508.81;;;17.54;36.84
49841;BME280;35738;49.890;5.930;2022-07-18T02:12:04;96507.38;;;17.60;36.69
49841;BME280;35738;49.890;5.930;2022-07-18T02:14:30;96512.03;;;17.56;36.94
49841;BME280;35738;49.890;5.930;2022-07-18T02:16:57;96507.28;;;17.56;36.92
49841;BME280;35738;49.890;5.930;2022-07-18T02:19:24;96510.25;;;17.63;36.91
49841;BME280;35738;49.890;5.930;2022-07-18T02:21:51;96511.97;;;17.68;36.76
49841;BME280;35738;49.890;5.930;2022-07-18T02:24:18;96498.88;;;17.68;36.52
49841;BME280;35738;49.890;5.930;2022-07-18T02:26:44;96506.78;;;17.66;37.05
49841;BME280;35738;49.890;5.930;2022-07-18T02:29:11;96511.78;;;17.61;37.00
49841;BME280;35738;49.890;5.930;2022-07-18T02:31:38;96502.53;;;17.57;37.08
49841;BME280;35738;49.890;5.930;2022-07-18T02:34:04;96505.03;;;17.62;36.81
49841;BME280;35738;49.890;5.930;2022-07-18T02:36:38;96504.22;;;17.61;37.26
49841;BME280;35738;49.890;5.930;2022-07-18T02:39:05;96496.78;;;17.65;37.17
49841;BME280;35738;49.890;5.930;2022-07-18T02:41:34;96501.28;;;17.70;36.93
49841;BME280;35738;49.890;5.930;2022-07-18T02:44:01;96495.00;;;17.73;36.44
49841;BME280;35738;49.890;5.930;2022-07-18T02:46:28;96501.28;;;17.70;37.15
49841;BME280;35738;49.890;5.930;2022-07-18T02:48:55;96506.78;;;17.66;36.72
49841;BME280;35738;49.890;5.930;2022-07-18T02:51:22;96501.38;;;17.58;37.31
49841;BME280;35738;49.890;5.930;2022-07-18T02:53:49;96498.50;;;17.54;37.57
49841;BME280;35738;49.890;5.930;2022-07-18T02:56:16;96500.66;;;17.45;37.93
49841;BME280;35738;49.890;5.930;2022-07-18T02:58:43;96494.19;;;17.41;37.69
49841;BME280;35738;49.890;5.930;2022-07-18T03:01:10;96489.16;;;17.46;37.52
49841;BME280;35738;49.890;5.930;2022-07-18T03:03:38;96504.69;;;17.47;37.27
49841;BME280;35738;49.890;5.930;2022-07-18T03:06:05;96497.69;;;17.54;37.66
49841;BME280;35738;49.890;5.930;2022-07-18T03:08:31;96501.38;;;17.58;37.40
49841;BME280;35738;49.890;5.930;2022-07-18T03:10:58;96502.97;;;17.59;37.62
49841;BME280;35738;49.890;5.930;2022-07-18T03:13:25;96500.19;;;17.59;38.01
49841;BME280;35738;49.890;5.930;2022-07-18T03:15:53;96501.19;;;17.51;37.77
49841;BME280;35738;49.890;5.930;2022-07-18T03:18:19;96488.09;;;17.51;38.01
49841;BME280;35738;49.890;5.930;2022-07-18T03:20:48;96503.06;;;17.46;38.22
49841;BME280;35738;49.890;5.930;2022-07-18T03:23:16;96506.38;;;17.36;37.89
49841;BME280;35738;49.890;5.930;2022-07-18T03:25:42;96497.06;;;17.29;38.50
49841;BME280;35738;49.890;5.930;2022-07-18T03:28:09;96493.84;;;17.27;38.79
49841;BME280;35738;49.890;5.930;2022-07-18T03:30:36;96498.84;;;17.21;38.66
49841;BME280;35738;49.890;5.930;2022-07-18T03:33:03;96497.41;;;17.11;39.26
49841;BME280;35738;49.890;5.930;2022-07-18T03:35:32;96497.50;;;17.15;38.79
49841;BME280;35738;49.890;5.930;2022-07-18T03:37:59;96493.28;;;17.21;38.77
49841;BME280;35738;49.890;5.930;2022-07-18T03:40:26;96514.28;;;17.34;38.58
49841;BME280;35738;49.890;5.930;2022-07-18T03:42:52;96502.91;;;17.39;38.57
49841;BME280;35738;49.890;5.930;2022-07-18T03:45:19;96501.72;;;17.40;38.17
49841;BME280;35738;49.890;5.930;2022-07-18T03:47:46;96501.19;;;17.35;38.43
49841;BME280;35738;49.890;5.930;2022-07-18T03:50:13;96498.31;;;17.31;38.74
49841;BME280;35738;49.890;5.930;2022-07-18T03:52:41;96492.13;;;17.22;38.81
49841;BME280;35738;49.890;5.930;2022-07-18T03:55:07;96499.03;;;17.12;39.22
49841;BME280;35738;49.890;5.930;2022-07-18T03:57:34;96505.53;;;17.04;39.40
49841;BME280;35738;49.890;5.930;2022-07-18T04:00:03;96499.88;;;17.01;39.39
49841;BME280;35738;49.890;5.930;2022-07-18T04:02:37;96511.69;;;16.98;39.71
49841;BME280;35738;49.890;5.930;2022-07-18T04:05:05;96504.06;;;16.95;40.04
49841;BME280;35738;49.890;5.930;2022-07-18T04:07:31;96506.28;;;16.89;39.74
49841;BME280;35738;49.890;5.930;2022-07-18T04:09:58;96514.88;;;16.84;39.86
49841;BME280;35738;49.890;5.930;2022-07-18T04:12:25;96510.50;;;16.83;39.98
49841;BME280;35738;49.890;5.930;2022-07-18T04:14:52;96512.00;;;16.80;40.36
49841;BME280;35738;49.890;5.930;2022-07-18T04:17:18;96512.91;;;16.84;40.45
49841;BME280;35738;49.890;5.930;2022-07-18T04:19:45;96516.16;;;16.87;39.81
49841;BME280;35738;49.890;5.930;2022-07-18T04:22:12;96511.03;;;16.89;40.25
49841;BME280;35738;49.890;5.930;2022-07-18T04:24:38;96506.22;;;17.01;39.92
49841;BME280;35738;49.890;5.930;2022-07-18T04:27:05;96502.72;;;16.89;40.09
49841;BME280;35738;49.890;5.930;2022-07-18T04:29:33;96506.75;;;16.91;40.84
49841;BME280;35738;49.890;5.930;2022-07-18T04:32:00;96514.47;;;16.98;41.11
49841;BME280;35738;49.890;5.930;2022-07-18T04:34:27;96496.00;;;16.90;41.37
49841;BME280;35738;49.890;5.930;2022-07-18T04:36:54;96503.34;;;16.98;40.98
49841;BME280;35738;49.890;5.930;2022-07-18T04:39:20;96498.78;;;17.05;41.06
49841;BME280;35738;49.890;5.930;2022-07-18T04:41:47;96507.75;;;16.99;40.44
49841;BME280;35738;49.890;5.930;2022-07-18T04:44:14;96502.66;;;17.01;41.09
49841;BME280;35738;49.890;5.930;2022-07-18T04:46:41;96506.09;;;17.10;40.21
49841;BME280;35738;49.890;5.930;2022-07-18T04:49:07;96503.97;;;17.19;40.51
49841;BME280;35738;49.890;5.930;2022-07-18T04:51:34;96503.59;;;17.36;40.03
49841;BME280;35738;49.890;5.930;2022-07-18T04:54:01;96500.81;;;17.52;39.34
49841;BME280;35738;49.890;5.930;2022-07-18T04:56:28;96494.13;;;17.69;39.20
49841;BME280;35738;49.890;5.930;2022-07-18T04:58:55;96503.88;;;17.78;38.86
49841;BME280;35738;49.890;5.930;2022-07-18T05:01:21;96502.19;;;17.90;39.78
49841;BME280;35738;49.890;5.930;2022-07-18T05:03:48;96489.16;;;17.94;39.59
49841;BME280;35738;49.890;5.930;2022-07-18T05:06:15;96489.41;;;18.04;40.25
49841;BME280;35738;49.890;5.930;2022-07-18T05:08:42;96499.91;;;18.11;39.88
49841;BME280;35738;49.890;5.930;2022-07-18T05:11:10;96501.75;;;18.23;39.89
49841;BME280;35738;49.890;5.930;2022-07-18T05:13:37;96500.91;;;18.38;39.59
49841;BME280;35738;49.890;5.930;2022-07-18T05:16:04;96495.56;;;18.49;39.33
49841;BME280;35738;49.890;5.930;2022-07-18T05:18:31;96486.25;;;18.41;39.39
49841;BME280;35738;49.890;5.930;2022-07-18T05:20:58;96484.78;;;18.28;40.54
49841;BME280;35738;49.890;5.930;2022-07-18T05:23:24;96483.59;;;18.29;41.13
49841;BME280;35738;49.890;5.930;2022-07-18T05:25:51;96489.63;;;18.50;41.63
49841;BME280;35738;49.890;5.930;2022-07-18T05:28:18;96489.06;;;18.60;41.59
49841;BME280;35738;49.890;5.930;2022-07-18T05:30:45;96488.19;;;18.95;40.21
49841;BME280;35738;49.890;5.930;2022-07-18T05:33:14;96487.09;;;19.22;39.89
49841;BME280;35738;49.890;5.930;2022-07-18T05:35:42;96493.97;;;19.48;39.64
49841;BME280;35738;49.890;5.930;2022-07-18T05:38:09;96486.66;;;19.62;39.68
49841;BME280;35738;49.890;5.930;2022-07-18T05:40:35;96496.19;;;19.84;40.73
49841;BME280;35738;49.890;5.930;2022-07-18T05:43:03;96485.03;;;20.37;39.08
49841;BME280;35738;49.890;5.930;2022-07-18T05:45:29;96470.59;;;20.61;38.36
49841;BME280;35738;49.890;5.930;2022-07-18T05:47:56;96486.00;;;21.12;37.34
49841;BME280;35738;49.890;5.930;2022-07-18T05:50:24;96477.88;;;21.77;36.88
49841;BME280;35738;49.890;5.930;2022-07-18T05:52:52;96485.97;;;21.89;36.21
49841;BME280;35738;49.890;5.930;2022-07-18T05:55:18;96481.59;;;22.47;34.81
49841;BME280;35738;49.890;5.930;2022-07-18T05:57:45;96483.59;;;23.44;33.47
49841;BME280;35738;49.890;5.930;2022-07-18T06:00:13;96492.41;;;23.42;33.33
49841;BME280;35738;49.890;5.930;2022-07-18T06:02:39;96491.53;;;23.06;32.58
49841;BME280;35738;49.890;5.930;2022-07-18T06:05:07;96485.19;;;23.34;33.07
49841;BME280;35738;49.890;5.930;2022-07-18T06:07:48;96494.91;;;23.87;32.16
49841;BME280;35738;49.890;5.930;2022-07-18T06:10:15;96489.28;;;23.97;31.81
49841;BME280;35738;49.890;5.930;2022-07-18T06:12:42;96492.47;;;24.46;31.08
49841;BME280;35738;49.890;5.930;2022-07-18T06:15:09;96496.56;;;25.43;31.53
49841;BME280;35738;49.890;5.930;2022-07-18T06:17:36;96492.22;;;25.24;30.73
49841;BME280;35738;49.890;5.930;2022-07-18T06:20:04;96484.78;;;25.58;31.43
49841;BME280;35738;49.890;5.930;2022-07-18T06:22:31;96489.03;;;25.84;30.69
49841;BME280;35738;49.890;5.930;2022-07-18T06:24:58;96482.44;;;25.46;31.48
49841;BME280;35738;49.890;5.930;2022-07-18T06:27:25;96476.81;;;25.46;31.67
49841;BME280;35738;49.890;5.930;2022-07-18T06:29:52;96479.94;;;24.75;30.87
49841;BME280;35738;49.890;5.930;2022-07-18T06:32:19;96484.34;;;24.76;30.32
49841;BME280;35738;49.890;5.930;2022-07-18T06:34:45;96480.13;;;25.34;29.80
49841;BME280;35738;49.890;5.930;2022-07-18T06:37:13;96488.75;;;25.64;31.13
49841;BME280;35738;49.890;5.930;2022-07-18T06:39:40;96473.00;;;25.08;30.91
49841;BME280;35738;49.890;5.930;2022-07-18T06:42:07;96474.13;;;25.21;29.87
49841;BME280;35738;49.890;5.930;2022-07-18T06:44:34;96474.28;;;25.66;29.06
49841;BME280;35738;49.890;5.930;2022-07-18T06:47:00;96472.16;;;25.81;26.01
49841;BME280;35738;49.890;5.930;2022-07-18T06:49:27;96481.53;;;25.67;26.58
49841;BME280;35738;49.890;5.930;2022-07-18T06:51:54;96470.19;;;25.78;26.46
49841;BME280;35738;49.890;5.930;2022-07-18T06:54:29;96484.00;;;26.54;25.64
49841;BME280;35738;49.890;5.930;2022-07-18T06:56:56;96478.81;;;26.08;25.62
49841;BME280;35738;49.890;5.930;2022-07-18T06:59:23;96476.53;;;25.89;25.78
49841;BME280;35738;49.890;5.930;2022-07-18T07:01:50;96467.19;;;25.44;25.80
49841;BME280;35738;49.890;5.930;2022-07-18T07:04:17;96471.16;;;26.50;24.34
49841;BME280;35738;49.890;5.930;2022-07-18T07:06:43;96475.16;;;26.52;24.64
49841;BME280;35738;49.890;5.930;2022-07-18T07:09:10;96463.00;;;25.70;24.25
49841;BME280;35738;49.890;5.930;2022-07-18T07:11:37;96465.84;;;26.14;24.04
49841;BME280;35738;49.890;5.930;2022-07-18T07:14:04;96468.75;;;26.07;24.54
49841;BME280;35738;49.890;5.930;2022-07-18T07:16:31;96470.03;;;26.44;23.44
49841;BME280;35738;49.890;5.930;2022-07-18T07:18:58;96470.03;;;26.81;24.15
49841;BME280;35738;49.890;5.930;2022-07-18T07:21:25;96471.91;;;27.26;23.51
49841;BME280;35738;49.890;5.930;2022-07-18T07:23:52;96476.38;;;26.89;23.19
49841;BME280;35738;49.890;5.930;2022-07-18T07:26:19;96471.81;;;26.65;24.04
49841;BME280;35738;49.890;5.930;2022-07-18T07:28:46;96474.41;;;27.50;24.09
49841;BME280;35738;49.890;5.930;2022-07-18T07:31:13;96479.44;;;27.36;22.37
49841;BME280;35738;49.890;5.930;2022-07-18T07:33:40;96483.63;;;27.54;22.96
49841;BME280;35738;49.890;5.930;2022-07-18T07:36:07;96475.31;;;27.71;22.07
49841;BME280;35738;49.890;5.930;2022-07-18T07:38:34;96476.28;;;28.11;21.94
49841;BME280;35738;49.890;5.930;2022-07-18T07:41:00;96474.41;;;27.47;21.95
49841;BME280;35738;49.890;5.930;2022-07-18T07:43:28;96479.13;;;26.17;22.70
49841;BME280;35738;49.890;5.930;2022-07-18T07:45:55;96461.38;;;25.72;23.72
49841;BME280;35738;49.890;5.930;2022-07-18T07:48:23;96473.53;;;25.55;24.49
49841;BME280;35738;49.890;5.930;2022-07-18T07:50:51;96476.78;;;25.53;25.28
49841;BME280;35738;49.890;5.930;2022-07-18T07:53:17;96474.22;;;25.77;25.02
49841;BME280;35738;49.890;5.930;2022-07-18T07:55:44;96483.88;;;25.76;24.55
49841;BME280;35738;49.890;5.930;2022-07-18T07:58:11;96483.72;;;25.38;25.01
49841;BME280;35738;49.890;5.930;2022-07-18T08:00:38;96481.63;;;25.49;24.09
49841;BME280;35738;49.890;5.930;2022-07-18T08:03:08;96474.09;;;25.91;24.42
49841;BME280;35738;49.890;5.930;2022-07-18T08:05:38;96480.78;;;25.52;24.50
49841;BME280;35738;49.890;5.930;2022-07-18T08:08:06;96479.25;;;25.44;26.29
49841;BME280;35738;49.890;5.930;2022-07-18T08:10:33;96481.44;;;25.78;23.60
49841;BME280;35738;49.890;5.930;2022-07-18T08:13:08;96481.94;;;25.62;24.45
49841;BME280;35738;49.890;5.930;2022-07-18T08:15:36;96481.97;;;25.58;25.19
49841;BME280;35738;49.890;5.930;2022-07-18T08:18:03;96483.91;;;25.72;25.36
49841;BME280;35738;49.890;5.930;2022-07-18T08:20:30;96471.00;;;25.75;25.36
49841;BME280;35738;49.890;5.930;2022-07-18T08:23:03;96474.19;;;25.80;24.45
49841;BME280;35738;49.890;5.930;2022-07-18T08:25:31;96481.69;;;26.01;24.77
49841;BME280;35738;49.890;5.930;2022-07-18T08:27:59;96478.44;;;25.99;24.21
49841;BME280;35738;49.890;5.930;2022-07-18T08:30:27;96462.66;;;26.12;24.43
49841;BME280;35738;49.890;5.930;2022-07-18T08:32:54;96481.03;;;26.27;25.33
49841;BME280;35738;49.890;5.930;2022-07-18T08:35:20;96473.38;;;26.28;24.35
49841;BME280;35738;49.890;5.930;2022-07-18T08:37:48;96467.28;;;26.37;25.37
49841;BME280;35738;49.890;5.930;2022-07-18T08:40:15;96462.59;;;26.19;25.36
49841;BME280;35738;49.890;5.930;2022-07-18T08:42:42;96465.03;;;26.17;24.49
49841;BME280;35738;49.890;5.930;2022-07-18T08:45:29;96468.50;;;26.36;25.19
49841;BME280;35738;49.890;5.930;2022-07-18T08:47:56;96469.72;;;26.35;25.41
49841;BME280;35738;49.890;5.930;2022-07-18T08:50:23;96470.31;;;26.53;26.02
49841;BME280;35738;49.890;5.930;2022-07-18T08:52:50;96465.38;;;26.64;25.60
49841;BME280;35738;49.890;5.930;2022-07-18T08:55:20;96467.59;;;26.83;25.58
49841;BME280;35738;49.890;5.930;2022-07-18T08:57:53;96463.44;;;26.91;25.20
49841;BME280;35738;49.890;5.930;2022-07-18T09:00:21;96454.75;;;26.75;25.18
49841;BME280;35738;49.890;5.930;2022-07-18T09:03:02;96463.63;;;26.74;25.30
49841;BME280;35738;49.890;5.930;2022-07-18T09:05:31;96461.22;;;26.76;25.05
49841;BME280;35738;49.890;5.930;2022-07-18T09:08:19;96451.84;;;26.48;25.63
49841;BME280;35738;49.890;5.930;2022-07-18T09:10:58;96455.88;;;26.85;24.85
49841;BME280;35738;49.890;5.930;2022-07-18T09:16:06;96461.13;;;26.83;26.71
49841;BME280;35738;49.890;5.930;2022-07-18T09:18:42;96449.47;;;27.15;26.10
49841;BME280;35738;49.890;5.930;2022-07-18T09:21:17;96440.72;;;27.06;26.48
49841;BME280;35738;49.890;5.930;2022-07-18T09:23:47;96445.97;;;27.04;25.92
49841;BME280;35738;49.890;5.930;2022-07-18T09:26:39;96454.97;;;27.26;25.20
49841;BME280;35738;49.890;5.930;2022-07-18T09:29:06;96441.47;;;27.10;25.97
49841;BME280;35738;49.890;5.930;2022-07-18T09:31:52;96449.22;;;27.33;24.86
49841;BME280;35738;49.890;5.930;2022-07-18T09:34:35;96449.16;;;27.36;25.31
49841;BME280;35738;49.890;5.930;2022-07-18T09:37:02;96442.66;;;27.39;25.99
49841;BME280;35738;49.890;5.930;2022-07-18T09:39:29;96449.09;;;27.40;24.16
49841;BME280;35738;49.890;5.930;2022-07-18T09:42:16;96456.34;;;27.71;23.96
49841;BME280;35738;49.890;5.930;2022-07-18T09:44:56;96449.78;;;27.51;24.25
49841;BME280;35738;49.890;5.930;2022-07-18T09:47:23;96455.13;;;27.42;24.64
49841;BME280;35738;49.890;5.930;2022-07-18T09:49:50;96448.56;;;27.79;24.02
49841;BME280;35738;49.890;5.930;2022-07-18T09:52:17;96449.53;;;27.69;23.76
49841;BME280;35738;49.890;5.930;2022-07-18T09:54:44;96447.94;;;27.68;23.82
49841;BME280;35738;49.890;5.930;2022-07-18T09:57:25;96453.16;;;27.69;23.47
49841;BME280;35738;49.890;5.930;2022-07-18T09:59:53;96450.38;;;27.35;23.83
49841;BME280;35738;49.890;5.930;2022-07-18T10:02:21;96456.53;;;27.84;24.67
49841;BME280;35738;49.890;5.930;2022-07-18T10:04:49;96450.81;;;27.64;25.24
49841;BME280;35738;49.890;5.930;2022-07-18T10:07:18;96445.59;;;27.59;24.44
49841;BME280;35738;49.890;5.930;2022-07-18T10:09:45;96444.63;;;27.96;24.14
49841;BME280;35738;49.890;5.930;2022-07-18T10:12:16;96459.19;;;28.18;24.34
49841;BME280;35738;49.890;5.930;2022-07-18T10:14:45;96457.03;;;27.79;24.61
49841;BME280;35738;49.890;5.930;2022-07-18T10:17:13;96452.63;;;28.01;24.94
49841;BME280;35738;49.890;5.930;2022-07-18T10:19:41;96456.44;;;28.14;25.42
49841;BME280;35738;49.890;5.930;2022-07-18T10:22:10;96455.56;;;28.64;24.24
49841;BME280;35738;49.890;5.930;2022-07-18T10:24:40;96454.03;;;28.60;22.91
49841;BME280;35738;49.890;5.930;2022-07-18T10:27:18;96448.41;;;28.36;23.45
49841;BME280;35738;49.890;5.930;2022-07-18T10:32:38;96443.16;;;28.58;22.17
49841;BME280;35738;49.890;5.930;2022-07-18T10:35:06;96450.38;;;28.39;23.43
49841;BME280;35738;49.890;5.930;2022-07-18T10:37:34;96441.28;;;28.28;23.34
49841;BME280;35738;49.890;5.930;2022-07-18T10:40:27;96443.88;;;28.62;23.08
49841;BME280;35738;49.890;5.930;2022-07-18T10:45:58;96437.91;;;28.76;22.70
49841;BME280;35738;49.890;5.930;2022-07-18T10:51:14;96445.88;;;28.85;22.69
49841;BME280;35738;49.890;5.930;2022-07-18T10:59:34;96451.06;;;29.26;22.75
49841;BME280;35738;49.890;5.930;2022-07-18T11:02:04;96433.41;;;29.38;22.57
49841;BME280;35738;49.890;5.930;2022-07-18T11:04:38;96435.53;;;29.87;23.31
49841;BME280;35738;49.890;5.930;2022-07-18T11:07:13;96445.91;;;30.26;21.87
49841;BME280;35738;49.890;5.930;2022-07-18T11:09:46;96434.34;;;29.68;20.95
49841;BME280;35738;49.890;5.930;2022-07-18T11:12:31;96437.34;;;29.45;21.47
49841;BME280;35738;49.890;5.930;2022-07-18T11:15:05;96433.41;;;29.38;21.53
49841;BME280;35738;49.890;5.930;2022-07-18T11:20:40;96429.50;;;29.32;21.36
49841;BME280;35738;49.890;5.930;2022-07-18T11:23:19;96433.31;;;29.78;21.91
49841;BME280;35738;49.890;5.930;2022-07-18T11:25:48;96436.00;;;30.01;22.19
49841;BME280;35738;49.890;5.930;2022-07-18T11:28:26;96432.06;;;30.28;21.27
49841;BME280;35738;49.890;5.930;2022-07-18T11:31:04;96425.16;;;30.29;20.62
49841;BME280;35738;49.890;5.930;2022-07-18T11:33:37;96425.94;;;29.64;20.78
49841;BME280;35738;49.890;5.930;2022-07-18T11:36:09;96432.28;;;29.16;21.45
49841;BME280;35738;49.890;5.930;2022-07-18T11:38:39;96430.81;;;29.64;23.21
49841;BME280;35738;49.890;5.930;2022-07-18T11:41:07;96416.13;;;29.85;21.06
49841;BME280;35738;49.890;5.930;2022-07-18T11:43:34;96420.38;;;30.26;21.74
49841;BME280;35738;49.890;5.930;2022-07-18T11:46:09;96421.44;;;30.16;21.08
49841;BME280;35738;49.890;5.930;2022-07-18T11:48:44;96418.53;;;29.87;21.99
49841;BME280;35738;49.890;5.930;2022-07-18T11:51:11;96425.06;;;30.49;20.94
49841;BME280;35738;49.890;5.930;2022-07-18T11:53:46;96418.84;;;30.83;19.70
49841;BME280;35738;49.890;5.930;2022-07-18T11:56:14;96415.94;;;31.12;19.86
49841;BME280;35738;49.890;5.930;2022-07-18T11:58:42;96413.41;;;30.88;19.41
49841;BME280;35738;49.890;5.930;2022-07-18T12:01:11;96407.28;;;30.90;20.71
49841;BME280;35738;49.890;5.930;2022-07-18T12:03:41;96406.25;;;30.96;18.91
49841;BME280;35738;49.890;5.930;2022-07-18T12:06:19;96393.72;;;30.52;19.09
49841;BME280;35738;49.890;5.930;2022-07-18T12:08:51;96395.94;;;30.45;19.70
49841;BME280;35738;49.890;5.930;2022-07-18T12:13:57;96393.19;;;30.41;20.50
49841;BME280;35738;49.890;5.930;2022-07-18T12:19:10;96398.25;;;31.20;19.64
49841;BME280;35738;49.890;5.930;2022-07-18T12:22:03;96396.81;;;31.54;19.67
49841;BME280;35738;49.890;5.930;2022-07-18T12:32:26;96388.88;;;31.23;19.74
49841;BME280;35738;49.890;5.930;2022-07-18T12:35:01;96380.34;;;31.49;20.17
49841;BME280;35738;49.890;5.930;2022-07-18T12:37:29;96386.03;;;31.49;18.46
49841;BME280;35738;49.890;5.930;2022-07-18T12:40:07;96384.25;;;31.13;19.02
49841;BME280;35738;49.890;5.930;2022-07-18T12:43:08;96382.50;;;31.57;19.30
49841;BME280;35738;49.890;5.930;2022-07-18T12:45:36;96380.13;;;31.56;18.32
49841;BME280;35738;49.890;5.930;2022-07-18T12:48:09;96381.03;;;31.53;18.33
49841;BME280;35738;49.890;5.930;2022-07-18T12:50:37;96376.59;;;31.26;18.65
49841;BME280;35738;49.890;5.930;2022-07-18T12:53:04;96368.19;;;31.36;18.76
49841;BME280;35738;49.890;5.930;2022-07-18T12:55:31;96375.69;;;31.55;19.68
49841;BME280;35738;49.890;5.930;2022-07-18T12:57:59;96375.34;;;31.53;19.79
49841;BME280;35738;49.890;5.930;2022-07-18T13:00:30;96366.56;;;31.85;20.03
49841;BME280;35738;49.890;5.930;2022-07-18T13:02:58;96371.03;;;32.34;18.85
49841;BME280;35738;49.890;5.930;2022-07-18T13:05:29;96373.06;;;31.99;19.51
49841;BME280;35738;49.890;5.930;2022-07-18T13:07:57;96363.63;;;32.23;18.17
49841;BME280;35738;49.890;5.930;2022-07-18T13:10:24;96359.72;;;31.96;19.38
49841;BME280;35738;49.890;5.930;2022-07-18T13:12:51;96355.03;;;31.13;18.88
49841;BME280;35738;49.890;5.930;2022-07-18T13:15:18;96357.38;;;31.31;19.94
49841;BME280;35738;49.890;5.930;2022-07-18T13:17:48;96362.84;;;31.25;18.80
49841;BME280;35738;49.890;5.930;2022-07-18T13:20:19;96352.22;;;32.02;19.57
49841;BME280;35738;49.890;5.930;2022-07-18T13:22:47;96355.88;;;32.59;19.55
49841;BME280;35738;49.890;5.930;2022-07-18T13:25:20;96349.78;;;32.47;19.06
49841;BME280;35738;49.890;5.930;2022-07-18T13:27:48;96349.00;;;32.69;20.77
49841;BME280;35738;49.890;5.930;2022-07-18T13:30:14;96347.78;;;33.23;18.25
49841;BME280;35738;49.890;5.930;2022-07-18T13:32:42;96345.25;;;33.25;18.73
49841;BME280;35738;49.890;5.930;2022-07-18T13:35:12;96343.66;;;32.93;18.42
49841;BME280;35738;49.890;5.930;2022-07-18T13:37:39;96355.25;;;32.98;17.90
49841;BME280;35738;49.890;5.930;2022-07-18T13:40:06;96341.31;;;31.87;18.04
49841;BME280;35738;49.890;5.930;2022-07-18T13:42:35;96341.31;;;32.35;18.04